createdAt,value
2018-10-01T00:01:00.178Z,11.13
2018-10-01T00:03:28.799Z,10.98
2018-10-01T00:05:57.640Z,10.96
2018-10-01T00:08:26.192Z,10.83
2018-10-01T00:10:54.947Z,10.84
2018-10-01T00:13:23.437Z,10.78
2018-10-01T00:15:51.980Z,10.59
2018-10-01T00:18:20.476Z,10.53
2018-10-01T00:20:54.329Z,10.44
2018-10-01T00:23:22.832Z,10.42
2018-10-01T00:25:51.340Z,10.39
2018-10-01T00:28:19.981Z,10.39
2018-10-01T00:30:48.504Z,10.29
2018-10-01T00:33:17.117Z,10.22
2018-10-01T00:35:45.998Z,10.12
2018-10-01T00:38:14.980Z,10.05
2018-10-01T00:40:43.460Z,10.13
2018-10-01T00:43:12.016Z,10.01
2018-10-01T00:45:40.555Z,9.96
2018-10-01T00:48:09.107Z,9.86
2018-10-01T00:50:37.730Z,9.85
2018-10-01T00:53:06.279Z,9.87
2018-10-01T00:55:34.765Z,9.80
2018-10-01T00:58:05.164Z,9.73
2018-10-01T01:00:33.731Z,9.73
2018-10-01T01:03:04.123Z,9.84
2018-10-01T01:05:32.687Z,9.84
2018-10-01T01:08:03.239Z,9.69
2018-10-01T01:10:31.801Z,9.74
2018-10-01T01:13:00.315Z,9.74
2018-10-01T01:15:28.842Z,9.69
2018-10-01T01:17:57.649Z,9.81
2018-10-01T01:20:32.600Z,9.83
2018-10-01T01:23:03.356Z,9.73
2018-10-01T01:25:31.874Z,9.74
2018-10-01T01:28:00.621Z,9.73
2018-10-01T01:30:29.115Z,9.76
2018-10-01T01:32:57.670Z,9.58
2018-10-01T01:35:26.407Z,9.64
2018-10-01T01:37:54.921Z,9.64
2018-10-01T01:40:23.409Z,9.58
2018-10-01T01:42:51.941Z,9.54
2018-10-01T01:45:20.442Z,9.55
2018-10-01T01:47:49.090Z,9.53
2018-10-01T01:50:17.631Z,9.60
2018-10-01T01:52:46.254Z,9.62
2018-10-01T01:55:14.784Z,9.57
2018-10-01T01:57:43.711Z,9.64
2018-10-01T02:00:12.237Z,9.63
2018-10-01T02:02:40.790Z,9.71
2018-10-01T02:05:09.412Z,9.67
2018-10-01T02:07:37.919Z,9.63
2018-10-01T02:10:06.475Z,9.56
2018-10-01T02:12:34.989Z,9.61
2018-10-01T02:15:05.705Z,9.52
2018-10-01T02:17:34.542Z,9.49
2018-10-01T02:20:05.088Z,9.51
2018-10-01T02:22:33.630Z,9.44
2018-10-01T02:25:04.229Z,9.43
2018-10-01T02:27:32.749Z,9.44
2018-10-01T02:30:03.467Z,9.37
2018-10-01T02:32:32.108Z,9.36
2018-10-01T02:35:00.636Z,9.41
2018-10-01T02:37:29.205Z,9.45
2018-10-01T02:39:57.757Z,9.47
2018-10-01T02:42:26.288Z,9.40
2018-10-01T02:44:54.811Z,9.46
2018-10-01T02:47:24.012Z,9.57
2018-10-01T02:49:52.514Z,9.58
2018-10-01T02:52:26.271Z,9.49
2018-10-01T02:54:55.751Z,9.55
2018-10-01T02:57:25.159Z,9.56
2018-10-01T02:59:53.646Z,9.62
2018-10-01T03:02:22.551Z,9.59
2018-10-01T03:04:51.077Z,9.61
2018-10-01T03:07:19.612Z,9.57
2018-10-01T03:09:54.986Z,9.64
2018-10-01T03:12:25.234Z,9.65
2018-10-01T03:14:56.587Z,9.75
2018-10-01T03:17:27.481Z,9.74
2018-10-01T03:20:00.366Z,9.77
2018-10-01T03:22:30.316Z,9.77
2018-10-01T03:24:59.426Z,9.73
2018-10-01T03:27:27.983Z,9.70
2018-10-01T03:29:56.503Z,9.75
2018-10-01T03:32:25.380Z,9.85
2018-10-01T03:34:54.086Z,9.72
2018-10-01T03:37:22.582Z,9.82
2018-10-01T03:39:51.161Z,9.83
2018-10-01T03:42:19.657Z,9.83
2018-10-01T03:44:48.455Z,9.82
2018-10-01T03:47:17.012Z,9.73
2018-10-01T03:49:45.558Z,9.80
2018-10-01T03:52:14.059Z,9.73
2018-10-01T03:54:42.582Z,9.79
2018-10-01T03:57:11.676Z,9.79
2018-10-01T03:59:40.589Z,9.68
2018-10-01T04:02:09.210Z,9.65
2018-10-01T04:04:37.741Z,9.58
2018-10-01T04:07:06.233Z,9.45
2018-10-01T04:09:34.749Z,9.49
2018-10-01T04:12:04.772Z,9.32
2018-10-01T04:14:33.354Z,9.26
2018-10-01T04:17:06.199Z,9.19
2018-10-01T04:19:34.692Z,9.17
2018-10-01T04:22:04.499Z,9.12
2018-10-01T04:24:33.058Z,9.13
2018-10-01T04:27:03.135Z,9.16
2018-10-01T04:29:31.690Z,9.07
2018-10-01T04:32:00.203Z,8.89
2018-10-01T04:34:28.749Z,8.86
2018-10-01T04:36:57.386Z,8.77
2018-10-01T04:39:25.936Z,8.69
2018-10-01T04:41:54.578Z,8.62
2018-10-01T04:44:23.091Z,8.54
2018-10-01T04:46:51.697Z,8.42
2018-10-01T04:49:20.131Z,8.28
2018-10-01T04:51:49.569Z,8.28
2018-10-01T04:54:18.157Z,8.32
2018-10-01T04:56:46.688Z,8.26
2018-10-01T04:59:15.183Z,8.13
2018-10-01T05:01:43.803Z,8.16
2018-10-01T05:04:12.312Z,8.22
2018-10-01T05:06:40.861Z,8.22
2018-10-01T05:09:10.300Z,8.15
2018-10-01T05:11:38.971Z,8.24
2018-10-01T05:14:08.295Z,8.16
2018-10-01T05:16:36.841Z,8.11
2018-10-01T05:19:05.785Z,8.16
2018-10-01T05:21:35.578Z,8.31
2018-10-01T05:24:05.229Z,8.41
2018-10-01T05:26:34.349Z,8.44
2018-10-01T05:29:04.638Z,8.37
2018-10-01T05:31:33.195Z,8.45
2018-10-01T05:34:02.804Z,8.47
2018-10-01T05:36:31.274Z,8.52
2018-10-01T05:38:59.800Z,8.55
2018-10-01T05:41:28.295Z,8.52
2018-10-01T05:43:57.148Z,8.52
2018-10-01T05:46:25.634Z,8.49
2018-10-01T05:48:54.127Z,8.53
2018-10-01T05:51:22.679Z,8.56
2018-10-01T05:53:51.304Z,8.53
2018-10-01T05:56:19.819Z,8.53
2018-10-01T05:58:48.452Z,8.43
2018-10-01T06:01:16.992Z,8.32
2018-10-01T06:03:45.494Z,8.33
2018-10-01T06:06:14.045Z,8.22
2018-10-01T06:08:42.586Z,8.32
2018-10-01T06:11:11.084Z,8.14
2018-10-01T06:13:39.590Z,8.16
2018-10-01T06:16:11.974Z,8.04
2018-10-01T06:18:40.512Z,8.05
2018-10-01T06:21:09.665Z,8.05
2018-10-01T06:23:38.136Z,8.07
2018-10-01T06:26:06.884Z,8.11
2018-10-01T06:28:35.884Z,8.10
2018-10-01T06:31:04.438Z,8.14
2018-10-01T06:33:33.492Z,8.26
2018-10-01T06:36:03.205Z,8.22
2018-10-01T06:38:31.772Z,8.39
2018-10-01T06:41:00.686Z,8.44
2018-10-01T06:43:29.270Z,8.50
2018-10-01T06:45:57.775Z,8.57
2018-10-01T06:48:26.283Z,8.54
2018-10-01T06:50:54.759Z,8.65
2018-10-01T06:53:23.385Z,8.76
2018-10-01T06:55:51.882Z,8.85
2018-10-01T06:58:20.434Z,8.91
2018-10-01T07:00:48.964Z,9.02
2018-10-01T07:03:17.602Z,9.08
2018-10-01T07:05:46.554Z,9.10
2018-10-01T07:08:15.125Z,9.21
2018-10-01T07:10:43.728Z,9.34
2018-10-01T07:13:12.250Z,9.49
2018-10-01T07:15:40.877Z,9.57
2018-10-01T07:18:09.369Z,9.68
2018-10-01T07:20:38.899Z,9.72
2018-10-01T07:23:07.542Z,9.77
2018-10-01T07:25:35.985Z,9.92
2018-10-01T07:28:05.265Z,9.97
2018-10-01T07:30:33.846Z,10.09
2018-10-01T07:33:04.502Z,10.26
2018-10-01T07:35:33.037Z,10.32
2018-10-01T07:38:02.669Z,10.37
2018-10-01T07:40:31.220Z,10.49
2018-10-01T07:42:59.761Z,10.60
2018-10-01T07:45:28.555Z,10.53
2018-10-01T07:47:57.871Z,10.57
2018-10-01T07:50:26.418Z,10.55
2018-10-01T07:52:55.403Z,10.75
2018-10-01T07:55:23.977Z,10.80
2018-10-01T07:57:52.473Z,10.81
2018-10-01T08:00:21.391Z,10.86
2018-10-01T08:02:49.898Z,10.85
2018-10-01T08:05:18.391Z,10.97
2018-10-01T08:07:46.975Z,10.91
2018-10-01T08:10:15.537Z,11.03
2018-10-01T08:12:44.086Z,10.99
2018-10-01T08:15:12.592Z,11.11
2018-10-01T08:17:41.126Z,11.31
2018-10-01T08:20:09.680Z,11.56
2018-10-01T08:22:38.161Z,11.87
2018-10-01T08:25:07.052Z,11.76
2018-10-01T08:27:35.583Z,11.94
2018-10-01T08:30:05.810Z,12.00
2018-10-01T08:32:34.296Z,12.31
2018-10-01T08:35:04.463Z,12.30
2018-10-01T08:37:33.227Z,11.57
2018-10-01T08:40:03.762Z,11.03
2018-10-01T08:42:32.267Z,11.11
2018-10-01T08:45:00.791Z,11.09
2018-10-01T08:47:29.527Z,11.14
2018-10-01T08:51:04.771Z,11.11
2018-10-01T08:53:37.850Z,11.29
2018-10-01T08:56:06.455Z,11.55
2018-10-01T08:58:35.143Z,11.54
2018-10-01T09:01:05.058Z,11.75
2018-10-01T09:03:33.601Z,11.77
2018-10-01T09:06:03.750Z,11.93
2018-10-01T09:08:32.287Z,12.32
2018-10-01T09:11:02.720Z,12.30
2018-10-01T09:13:31.240Z,12.71
2018-10-01T09:15:59.771Z,12.92
2018-10-01T09:18:28.247Z,12.68
2018-10-01T09:20:56.785Z,12.81
2018-10-01T09:23:25.373Z,12.50
2018-10-01T09:25:53.897Z,12.39
2018-10-01T09:28:22.400Z,12.42
2018-10-01T09:30:50.942Z,12.63
2018-10-01T09:33:19.486Z,12.82
2018-10-01T09:35:48.586Z,13.15
2018-10-01T09:38:21.434Z,13.03
2018-10-01T09:40:50.000Z,13.21
2018-10-01T09:43:18.494Z,13.80
2018-10-01T09:45:47.029Z,12.65
2018-10-01T09:48:15.551Z,10.93
2018-10-01T09:50:44.242Z,10.27
2018-10-01T09:53:12.745Z,10.20
2018-10-01T09:55:41.385Z,10.12
2018-10-01T09:58:10.300Z,9.90
2018-10-01T10:00:42.581Z,9.93
2018-10-01T10:03:11.782Z,10.20
2018-10-01T10:05:40.305Z,10.41
2018-10-01T10:08:08.898Z,10.60
2018-10-01T10:10:37.443Z,10.80
2018-10-01T10:13:05.989Z,11.36
2018-10-01T10:15:34.517Z,11.57
2018-10-01T10:18:04.979Z,11.41
2018-10-01T10:20:34.658Z,11.35
2018-10-01T10:23:04.775Z,11.61
2018-10-01T10:25:33.303Z,11.41
2018-10-01T10:28:02.878Z,11.68
2018-10-01T10:30:31.353Z,12.10
2018-10-01T10:32:59.933Z,11.96
2018-10-01T10:35:28.540Z,12.00
2018-10-01T10:37:57.067Z,12.09
2018-10-01T10:40:25.561Z,11.89
2018-10-01T10:42:54.068Z,11.95
2018-10-01T10:45:22.630Z,12.06
2018-10-01T10:47:51.149Z,11.77
2018-10-01T10:50:19.863Z,11.83
2018-10-01T10:52:48.720Z,11.63
2018-10-01T10:55:17.222Z,11.70
2018-10-01T10:57:45.757Z,12.12
2018-10-01T11:00:14.375Z,12.39
2018-10-01T11:02:42.865Z,12.47
2018-10-01T11:05:11.373Z,12.44
2018-10-01T11:07:39.994Z,12.46
2018-10-01T11:10:08.884Z,12.60
2018-10-01T11:12:37.414Z,12.37
2018-10-01T11:15:06.162Z,12.24
2018-10-01T11:17:34.528Z,12.51
2018-10-01T11:20:04.961Z,12.78
2018-10-01T11:22:33.737Z,12.94
2018-10-01T11:25:03.711Z,13.20
2018-10-01T11:27:32.231Z,13.30
2018-10-01T11:30:00.782Z,13.02
2018-10-01T11:32:30.298Z,13.11
2018-10-01T11:34:58.842Z,12.62
2018-10-01T11:37:27.326Z,12.42
2018-10-01T11:39:55.858Z,12.45
2018-10-01T11:42:24.426Z,12.12
2018-10-01T11:44:52.990Z,11.91
2018-10-01T11:47:21.486Z,11.21
2018-10-01T11:49:50.013Z,10.90
2018-10-01T11:52:18.565Z,10.98
2018-10-01T11:54:47.162Z,11.15
2018-10-01T11:57:16.193Z,11.22
2018-10-01T11:59:44.741Z,11.12
2018-10-01T12:02:13.292Z,11.07
2018-10-01T12:04:41.890Z,11.35
2018-10-01T12:07:17.011Z,11.08
2018-10-01T12:09:45.668Z,11.40
2018-10-01T12:12:14.165Z,12.56
2018-10-01T12:14:42.695Z,12.38
2018-10-01T12:17:11.229Z,13.41
2018-10-01T12:19:39.777Z,14.18
2018-10-01T12:22:08.374Z,13.63
2018-10-01T12:24:36.912Z,12.45
2018-10-01T12:27:05.839Z,12.66
2018-10-01T12:29:34.371Z,12.44
2018-10-01T12:32:04.186Z,12.49
2018-10-01T12:34:32.710Z,12.52
2018-10-01T12:37:03.737Z,12.17
2018-10-01T12:39:32.464Z,11.99
2018-10-01T12:42:00.962Z,11.76
2018-10-01T12:44:29.539Z,11.78
2018-10-01T12:46:58.546Z,11.91
2018-10-01T12:49:27.133Z,12.08
2018-10-01T12:51:55.635Z,11.92
2018-10-01T12:54:24.354Z,12.30
2018-10-01T12:56:52.961Z,12.09
2018-10-01T12:59:21.499Z,11.00
2018-10-01T13:01:50.005Z,9.95
2018-10-01T13:04:18.640Z,9.79
2018-10-01T13:06:47.687Z,9.76
2018-10-01T13:09:16.529Z,10.44
2018-10-01T13:11:49.000Z,11.27
2018-10-01T13:14:17.497Z,12.44
2018-10-01T13:16:46.094Z,12.43
2018-10-01T13:19:14.545Z,11.67
2018-10-01T13:21:43.035Z,11.24
2018-10-01T13:24:11.590Z,10.92
2018-10-01T13:26:40.174Z,10.66
2018-10-01T13:29:08.711Z,10.59
2018-10-01T13:31:37.818Z,10.01
2018-10-01T13:34:06.512Z,9.77
2018-10-01T13:36:35.071Z,9.90
2018-10-01T13:39:08.533Z,10.61
2018-10-01T13:41:37.175Z,10.77
2018-10-01T13:44:07.894Z,10.96
2018-10-01T13:46:36.938Z,10.97
2018-10-01T13:49:05.708Z,11.74
2018-10-01T13:51:34.302Z,11.89
2018-10-01T13:54:05.552Z,12.07
2018-10-01T13:56:34.065Z,12.56
2018-10-01T13:59:03.837Z,14.17
2018-10-01T14:01:32.504Z,12.25
2018-10-01T14:04:00.945Z,12.46
2018-10-01T14:06:29.592Z,12.94
2018-10-01T14:08:58.112Z,12.72
2018-10-01T14:11:26.716Z,12.30
2018-10-01T14:13:55.392Z,12.05
2018-10-01T14:16:24.177Z,11.83
2018-10-01T14:18:52.830Z,10.77
2018-10-01T14:21:21.502Z,10.55
2018-10-01T14:23:50.701Z,11.22
2018-10-01T14:26:19.224Z,11.95
2018-10-01T14:28:47.892Z,11.87
2018-10-01T14:31:16.699Z,12.05
2018-10-01T14:33:45.257Z,12.35
2018-10-01T14:36:13.817Z,12.35
2018-10-01T14:38:42.350Z,12.18
2018-10-01T14:41:10.913Z,13.09
2018-10-01T14:43:40.336Z,12.66
2018-10-01T14:46:09.074Z,12.89
2018-10-01T14:48:37.725Z,12.36
2018-10-01T14:51:06.334Z,12.45
2018-10-01T14:53:34.840Z,11.71
2018-10-01T14:56:07.689Z,12.17
2018-10-01T14:58:36.224Z,11.61
2018-10-01T15:01:05.118Z,11.97
2018-10-01T15:03:33.755Z,12.10
2018-10-01T15:06:04.080Z,12.13
2018-10-01T15:08:32.620Z,11.83
2018-10-01T15:11:03.121Z,11.71
2018-10-01T15:13:31.656Z,11.05
2018-10-01T15:16:00.163Z,11.26
2018-10-01T15:18:28.808Z,11.21
2018-10-01T15:20:57.342Z,10.88
2018-10-01T15:23:26.715Z,10.97
2018-10-01T15:25:55.365Z,11.02
2018-10-01T15:28:24.143Z,10.87
2018-10-01T15:30:52.674Z,10.94
2018-10-01T15:33:21.317Z,11.03
2018-10-01T15:35:49.889Z,10.99
2018-10-01T15:38:18.435Z,10.97
2018-10-01T15:40:46.994Z,10.74
2018-10-01T15:43:15.541Z,10.76
2018-10-01T15:45:45.106Z,10.54
2018-10-01T15:48:13.663Z,10.56
2018-10-01T15:50:42.197Z,10.59
2018-10-01T15:53:11.109Z,10.49
2018-10-01T15:55:39.983Z,10.46
2018-10-01T15:58:08.596Z,10.33
2018-10-01T16:00:38.402Z,9.93
2018-10-01T16:03:07.219Z,9.88
2018-10-01T16:05:35.691Z,9.74
2018-10-01T16:08:07.416Z,9.79
2018-10-01T16:10:35.910Z,9.89
2018-10-01T16:13:07.005Z,10.22
2018-10-01T16:15:35.595Z,10.94
2018-10-01T16:18:06.347Z,11.25
2018-10-01T16:20:36.612Z,11.62
2018-10-01T16:23:05.574Z,11.65
2018-10-01T16:25:34.520Z,11.15
2018-10-01T16:28:05.011Z,10.94
2018-10-01T16:30:33.602Z,10.48
2018-10-01T16:33:05.428Z,9.93
2018-10-01T16:35:34.100Z,9.68
2018-10-01T16:38:04.012Z,9.49
2018-10-01T16:40:32.729Z,9.34
2018-10-01T16:43:03.146Z,9.33
2018-10-01T16:45:32.031Z,9.18
2018-10-01T16:48:00.528Z,9.22
2018-10-01T16:50:30.543Z,9.17
2018-10-01T16:52:59.086Z,9.05
2018-10-01T16:55:27.617Z,8.97
2018-10-01T16:57:56.166Z,8.89
2018-10-01T17:00:25.077Z,8.84
2018-10-01T17:02:53.683Z,8.77
2018-10-01T17:05:22.271Z,8.88
2018-10-01T17:07:50.849Z,8.76
2018-10-01T17:10:20.136Z,8.74
2018-10-01T17:12:48.765Z,8.77
2018-10-01T17:15:17.359Z,8.70
2018-10-01T17:17:45.857Z,8.77
2018-10-01T17:20:14.404Z,8.69
2018-10-01T17:22:42.908Z,8.67
2018-10-01T17:25:11.434Z,8.63
2018-10-01T17:27:40.216Z,8.58
2018-10-01T17:30:10.429Z,8.60
2018-10-01T17:32:38.936Z,8.55
2018-10-01T17:35:07.495Z,8.63
2018-10-01T17:37:36.151Z,8.62
2018-10-01T17:40:05.369Z,8.61
2018-10-01T17:42:34.054Z,8.55
2018-10-01T17:45:05.074Z,8.68
2018-10-01T17:47:33.555Z,8.69
2018-10-01T17:50:07.852Z,8.57
2018-10-01T17:52:36.389Z,8.57
2018-10-01T17:55:05.203Z,8.50
2018-10-01T17:57:33.752Z,8.53
2018-10-01T18:00:06.908Z,8.50
2018-10-01T18:02:35.474Z,8.53
2018-10-01T18:05:06.021Z,8.61
2018-10-01T18:07:34.927Z,8.65
2018-10-01T18:10:07.731Z,8.51
2018-10-01T18:12:36.330Z,8.67
2018-10-01T18:15:07.507Z,8.67
2018-10-01T18:17:36.070Z,8.55
2018-10-01T18:20:06.719Z,8.55
2018-10-01T18:25:29.189Z,8.27
2018-10-01T18:27:57.673Z,8.09
2018-10-01T18:30:26.279Z,7.95
2018-10-01T18:32:54.856Z,7.88
2018-10-01T18:35:23.845Z,7.89
2018-10-01T18:37:52.417Z,7.76
2018-10-01T18:40:34.371Z,7.61
2018-10-01T18:43:08.778Z,7.60
2018-10-01T18:45:37.766Z,7.53
2018-10-01T18:48:07.295Z,7.45
2018-10-01T18:50:35.987Z,7.37
2018-10-01T18:53:06.767Z,7.19
2018-10-01T18:55:35.412Z,7.27
2018-10-01T18:58:06.893Z,7.21
2018-10-01T19:00:39.271Z,7.15
2018-10-01T19:03:07.856Z,7.18
2018-10-01T19:05:36.375Z,7.19
2018-10-01T19:08:06.417Z,7.04
2018-10-01T19:10:35.084Z,7.11
2018-10-01T19:13:06.468Z,6.96
2018-10-01T19:15:34.996Z,6.99
2018-10-01T19:18:07.104Z,6.84
2018-10-01T19:20:36.703Z,6.74
2018-10-01T19:23:06.297Z,6.85
2018-10-01T19:25:34.874Z,6.75
2018-10-01T19:28:06.254Z,6.72
2018-10-01T19:30:34.822Z,6.61
2018-10-01T19:33:05.498Z,6.65
2018-10-01T19:35:34.072Z,6.71
2018-10-01T19:38:04.083Z,6.67
2018-10-01T19:40:32.610Z,6.64
2018-10-01T19:43:03.300Z,6.60
2018-10-01T19:45:31.914Z,6.47
2018-10-01T19:48:00.510Z,6.44
2018-10-01T19:50:29.205Z,6.56
2018-10-01T19:52:57.839Z,6.49
2018-10-01T19:55:26.781Z,6.53
2018-10-01T19:57:55.294Z,6.43
2018-10-01T20:00:23.925Z,6.39
2018-10-01T20:02:52.614Z,6.52
2018-10-01T20:05:21.209Z,6.45
2018-10-01T20:07:49.693Z,6.42
2018-10-01T20:10:18.707Z,6.37
2018-10-01T20:12:47.822Z,6.28
2018-10-01T20:15:16.422Z,6.29
2018-10-01T20:17:44.946Z,6.43
2018-10-01T20:20:13.735Z,6.47
2018-10-01T20:22:42.272Z,6.47
2018-10-01T20:25:11.537Z,6.58
2018-10-01T20:27:40.164Z,6.56
2018-10-01T20:30:10.059Z,6.59
2018-10-01T20:32:41.344Z,6.54
2018-10-01T20:35:09.987Z,6.61
2018-10-01T20:37:38.485Z,6.46
2018-10-01T20:40:07.999Z,6.42
2018-10-01T20:42:36.590Z,6.46
2018-10-01T20:45:05.570Z,6.53
2018-10-01T20:47:34.493Z,6.49
2018-10-01T20:50:07.437Z,6.45
2018-10-01T20:52:36.446Z,6.31
2018-10-01T20:55:09.191Z,6.35
2018-10-01T20:57:39.970Z,6.25
2018-10-01T21:00:14.637Z,6.25
2018-10-01T21:02:43.573Z,6.13
2018-10-01T21:05:12.072Z,6.06
2018-10-01T21:07:40.645Z,6.12
2018-10-01T21:10:09.220Z,5.97
2018-10-01T21:12:37.708Z,5.96
2018-10-01T21:15:09.282Z,5.82
2018-10-01T21:17:38.500Z,5.89
2018-10-01T21:20:07.153Z,5.82
2018-10-01T21:22:35.743Z,5.66
2018-10-01T21:25:06.235Z,5.76
2018-10-01T21:27:34.866Z,5.78
2018-10-01T21:30:05.291Z,5.73
2018-10-01T21:32:33.850Z,5.69
2018-10-01T21:35:04.176Z,5.75
2018-10-01T21:37:32.705Z,5.75
2018-10-01T21:40:08.277Z,5.73
2018-10-01T21:42:36.816Z,5.80
2018-10-01T21:45:05.858Z,5.66
2018-10-01T21:47:34.649Z,5.65
2018-10-01T21:50:04.881Z,5.70
2018-10-01T21:52:33.488Z,5.65
2018-10-01T21:55:04.011Z,5.55
2018-10-01T21:57:32.656Z,5.48
2018-10-01T22:00:03.520Z,5.43
2018-10-01T22:02:32.059Z,5.54
2018-10-01T22:05:00.757Z,5.63
2018-10-01T22:07:29.310Z,5.71
2018-10-01T22:09:57.868Z,5.73
2018-10-01T22:12:26.413Z,5.61
2018-10-01T22:14:54.890Z,5.55
2018-10-01T22:17:23.465Z,5.52
2018-10-01T22:19:52.039Z,5.50
2018-10-01T22:22:20.965Z,5.49
2018-10-01T22:24:49.487Z,5.54
2018-10-01T22:27:18.020Z,5.48
2018-10-01T22:29:46.558Z,5.57
2018-10-01T22:32:15.111Z,5.40
2018-10-01T22:34:43.629Z,5.45
2018-10-01T22:37:12.397Z,5.36
2018-10-01T22:39:40.953Z,5.32
2018-10-01T22:42:09.505Z,5.13
2018-10-01T22:44:38.032Z,5.11
2018-10-01T22:47:06.743Z,5.14
2018-10-01T22:49:35.270Z,5.17
2018-10-01T22:52:06.152Z,5.15
2018-10-01T22:54:34.734Z,5.29
2018-10-01T22:57:04.895Z,5.29
2018-10-01T22:59:33.435Z,5.26
2018-10-01T23:02:04.090Z,5.14
2018-10-01T23:04:32.639Z,5.28
2018-10-01T23:07:02.751Z,5.20
2018-10-01T23:09:31.294Z,5.16
2018-10-01T23:11:59.792Z,5.27
2018-10-01T23:14:28.338Z,5.43
2018-10-01T23:16:56.982Z,5.55
2018-10-01T23:19:25.543Z,5.60
2018-10-01T23:21:54.077Z,5.66
2018-10-01T23:24:22.596Z,5.61
2018-10-01T23:26:51.182Z,5.60
2018-10-01T23:29:19.665Z,5.59
2018-10-01T23:31:48.266Z,5.54
2018-10-01T23:34:16.800Z,5.59
2018-10-01T23:36:45.696Z,5.70
2018-10-01T23:39:14.250Z,5.73
2018-10-01T23:41:42.817Z,5.80
2018-10-01T23:44:11.317Z,5.86
2018-10-01T23:46:39.853Z,5.88
2018-10-01T23:49:08.346Z,5.89
2018-10-01T23:51:36.914Z,5.89
2018-10-01T23:54:05.493Z,5.95
2018-10-01T23:56:33.960Z,5.93
2018-10-01T23:59:04.891Z,5.89
